Latest Weather Observations for Witchcliffe

IDW60801

Issued at 1:02 pm WST Tuesday 30 June 2015 (issued every 30 minutes, with the page automatically refreshed every 10 minutes)

About weather observations | Map of weather stations | Latest weather observations for WA | Other Formats
Station Details ID: 009746 Name: WITCHCLIFFE Lat: -34.03 Lon: 115.10 Height: 80.0 m
Data from the previous 72 hours. | See also: Recent months at Witchcliffe
Date/Time
WST
Temp
°C
App
Temp
°C
Dew
Point
Rel
Hum
%
Delta-T
°C
Wind Press
QNH
hPa
Press
MSL
hPa
Rain
since 9 am
mm
Dir
 
Spd
km/h
Gust
km/h
Spd
kts
Gust
kts
30/01:00pm 17.0 16.6 12.5 75 2.5 N 6 7 3 4 1021.2 1021.2 0.0
30/12:30pm 15.9 15.0 11.3 74 2.5 N 7 11 4 6 1021.4 1021.4 0.0
30/12:00pm 15.7 13.6 11.1 74 2.5 N 13 15 7 8 1021.9 1021.9 0.0
30/11:30am 15.6 16.1 12.7 83 1.6 NNE 2 9 1 5 1022.5 1022.5 0.0
30/11:00am 14.6 14.7 14.4 99 0.1 N 7 11 4 6 1023.1 1023.1 0.0
30/10:30am 13.9 15.1 13.9 100 0.0 CALM 0 0 0 0 1023.4 1023.4 0.0
30/10:00am 11.9 12.5 11.9 100 0.0 CALM 0 7 0 4 1023.4 1023.4 0.0
30/09:30am 10.3 10.4 10.3 100 0.0 CALM 0 0 0 0 1023.3 1023.3 0.0
30/09:00am 8.6 8.3 8.5 99 0.0 CALM 0 0 0 0 1023.5 1023.5 0.2
30/08:30am 6.7 5.9 6.6 99 0.0 CALM 0 0 0 0 1022.9 1022.9 0.2
30/08:00am 5.9 4.9 5.8 99 0.0 CALM 0 0 0 0 1023.0 1023.0 0.2
30/07:30am 5.5 4.5 5.4 99 0.0 CALM 0 0 0 0 1023.0 1023.0 0.2
30/07:00am 5.8 4.8 5.7 99 0.0 CALM 0 0 0 0 1022.6 1022.6 0.2
30/06:30am 5.1 3.2 5.0 99 0.0 N 4 9 2 5 1022.3 1022.3 0.2
30/06:00am 5.0 3.5 4.9 99 0.0 NNW 2 6 1 3 1022.4 1022.4 0.2
30/05:30am 4.7 3.5 4.6 99 0.0 CALM 0 0 0 0 1022.4 1022.4 0.2
30/05:00am 4.3 3.0 4.2 99 0.0 CALM 0 0 0 0 1022.5 1022.5 0.2
30/04:30am 5.1 4.0 5.0 99 0.0 CALM 0 0 0 0 1022.5 1022.5 0.2
30/04:00am 4.7 3.5 4.6 99 0.0 CALM 0 0 0 0 1022.2 1022.2 0.2
30/03:30am 5.1 4.0 5.0 99 0.0 CALM 0 2 0 1 1022.4 1022.4 0.2
30/03:00am 4.6 3.4 4.5 99 0.0 CALM 0 0 0 0 1022.4 1022.4 0.2
30/02:30am 4.5 3.3 4.4 99 0.0 CALM 0 0 0 0 1022.6 1022.6 0.2
30/02:00am 4.9 3.7 4.8 99 0.0 CALM 0 0 0 0 1022.8 1022.8 0.2
30/01:30am 5.1 4.0 5.0 99 0.0 CALM 0 0 0 0 1022.9 1022.9 0.2
30/01:00am 5.1 4.0 5.0 99 0.0 CALM 0 0 0 0 1023.3 1023.3 0.2
30/12:30am 4.9 3.7 4.8 99 0.0 CALM 0 0 0 0 1023.4 1023.4 0.2
30/12:00am 4.8 3.6 4.7 99 0.0 CALM 0 0 0 0 1023.4 1023.4 0.2
 
Date/Time
WST
Temp
°C
App
Temp
°C
Dew
Point
Rel
Hum
%
Delta-T
°C
Wind Press
QNH
hPa
Press
MSL
hPa
Rain
since 9 am
mm
Dir
 
Spd
km/h
Gust
km/h
Spd
kts
Gust
kts
29/11:30pm 5.2 4.1 5.1 99 0.0 CALM 0 0 0 0 1023.3 1023.3 0.2
29/11:00pm 5.9 4.9 5.8 99 0.0 CALM 0 0 0 0 1023.6 1023.6 0.2
29/10:30pm 6.6 5.8 6.5 99 0.0 CALM 0 0 0 0 1023.5 1023.5 0.2
29/10:00pm 6.5 5.7 6.4 99 0.0 CALM 0 0 0 0 1023.6 1023.6 0.2
29/09:30pm 7.5 6.9 7.4 99 0.0 CALM 0 0 0 0 1024.0 1024.0 0.2
29/09:00pm 7.5 6.9 7.4 99 0.0 CALM 0 0 0 0 1023.8 1023.8 0.2
29/08:30pm 7.3 6.5 6.7 96 0.3 CALM 0 0 0 0 1023.9 1023.9 0.2
29/08:00pm 8.6 8.1 8.0 96 0.3 CALM 0 0 0 0 1023.9 1023.9 0.2
29/07:30pm 9.1 8.7 8.2 94 0.4 CALM 0 0 0 0 1023.8 1023.8 0.2
29/07:00pm 9.1 8.5 7.5 90 0.8 CALM 0 0 0 0 1023.7 1023.7 0.2
29/06:30pm 9.9 9.3 7.5 85 1.1 CALM 0 0 0 0 1023.5 1023.5 0.2
29/06:00pm 10.7 10.1 7.6 81 1.5 CALM 0 0 0 0 1023.7 1023.7 0.2
29/05:30pm 12.3 11.7 7.4 72 2.4 CALM 0 0 0 0 1023.6 1023.6 0.2
29/05:00pm 14.4 14.1 8.6 68 2.9 CALM 0 0 0 0 1023.6 1023.6 0.2
29/04:30pm 15.7 15.5 8.9 64 3.5 CALM 0 0 0 0 1023.6 1023.6 0.2
29/04:00pm 17.3 16.2 7.1 51 5.1 SE 2 6 1 3 1023.8 1023.8 0.2
29/03:30pm 19.3 18.8 8.0 48 5.8 CALM 0 0 0 0 1023.8 1023.8 0.2
29/03:00pm 19.2 18.4 6.7 44 6.3 CALM 0 0 0 0 1023.7 1023.7 0.2
29/02:30pm 17.8 17.0 6.7 48 5.5 CALM 0 0 0 0 1023.6 1023.6 0.2
29/02:00pm 17.8 16.8 7.2 50 5.3 ESE 2 7 1 4 1023.8 1023.8 0.2
29/01:30pm 18.1 16.3 7.8 51 5.3 ENE 7 9 4 5 1023.9 1023.9 0.2
29/01:00pm 17.9 16.9 8.7 55 4.8 ENE 4 9 2 5 1024.2 1024.2 0.2
29/12:30pm 17.5 16.3 8.1 54 4.8 ESE 4 9 2 5 1024.7 1024.7 0.2
29/12:00pm 17.6 16.1 8.5 55 4.7 NE 6 7 3 4 1025.1 1025.1 0.2
29/11:30am 16.0 16.0 9.9 67 3.2 CALM 0 0 0 0 1025.4 1025.4 0.0
29/11:00am 15.1 15.0 9.5 69 2.9 CALM 0 0 0 0 1025.8 1025.8 0.0
29/10:30am 13.3 13.4 10.3 82 1.6 CALM 0 0 0 0 1026.0 1026.0 0.0
29/10:00am 11.3 10.3 11.0 98 0.2 S 7 9 4 5 1026.1 1026.1 0.0
29/09:30am 10.5 10.6 10.3 99 0.1 CALM 0 0 0 0 1026.0 1026.0 0.0
29/09:00am 8.6 8.3 8.5 99 0.0 CALM 0 0 0 0 1025.8 1025.8 0.0
29/08:30am 7.1 6.4 7.0 99 0.0 CALM 0 0 0 0 1025.9 1025.9 0.0
29/08:00am 4.4 3.1 4.3 99 0.0 CALM 0 0 0 0 1025.8 1025.8 0.0
29/07:30am 5.0 3.9 4.9 99 0.0 CALM 0 0 0 0 1025.7 1025.7 0.0
29/07:00am 4.7 3.5 4.6 99 0.0 CALM 0 0 0 0 1025.7 1025.7 0.0
29/06:30am 5.2 4.1 5.1 99 0.0 CALM 0 0 0 0 1025.7 1025.7 0.0
29/06:00am 6.5 5.3 6.4 99 0.0 NNE 2 6 1 3 1025.5 1025.5 0.0
29/05:30am 6.1 5.2 6.0 99 0.0 CALM 0 0 0 0 1025.6 1025.6 0.0
29/05:00am 5.8 4.8 5.7 99 0.0 CALM 0 0 0 0 1025.7 1025.7 0.0
29/04:30am 6.0 5.1 5.9 99 0.0 CALM 0 0 0 0 1025.9 1025.9 0.0
29/04:00am 6.1 5.2 6.0 99 0.0 CALM 0 0 0 0 1026.1 1026.1 0.0
29/03:30am 5.5 4.1 5.4 99 0.0 N 2 7 1 4 1026.2 1026.2 0.0
29/03:00am 5.6 4.6 5.5 99 0.0 CALM 0 2 0 1 1026.5 1026.5 0.0
29/02:30am 6.0 5.1 5.9 99 0.0 CALM 0 0 0 0 1026.7 1026.7 0.0
29/02:00am 5.8 4.8 5.7 99 0.0 CALM 0 0 0 0 1026.8 1026.8 0.0
29/01:30am 5.5 4.5 5.4 99 0.0 CALM 0 0 0 0 1026.8 1026.8 0.0
29/01:00am 5.4 4.3 5.3 99 0.0 CALM 0 0 0 0 1026.9 1026.9 0.0
29/12:30am 6.1 5.2 6.0 99 0.0 CALM 0 0 0 0 1027.0 1027.0 0.0
29/12:00am 6.0 5.1 5.9 99 0.0 CALM 0 0 0 0 1027.2 1027.2 0.0
 
Date/Time
WST
Temp
°C
App
Temp
°C
Dew
Point
Rel
Hum
%
Delta-T
°C
Wind Press
QNH
hPa
Press
MSL
hPa
Rain
since 9 am
mm
Dir
 
Spd
km/h
Gust
km/h
Spd
kts
Gust
kts
28/11:30pm 6.4 5.6 6.3 99 0.0 CALM 0 0 0 0 1027.4 1027.4 0.0
28/11:00pm 7.2 6.5 7.1 99 0.0 CALM 0 0 0 0 1027.6 1027.6 0.0
28/10:30pm 7.2 6.5 7.1 99 0.0 CALM 0 0 0 0 1027.6 1027.6 0.0
28/10:00pm 7.4 6.7 7.1 98 0.1 CALM 0 0 0 0 1027.6 1027.6 0.0
28/09:30pm 7.2 6.5 6.9 98 0.1 CALM 0 6 0 3 1027.4 1027.4 0.0
28/09:00pm 7.0 6.2 6.6 97 0.2 CALM 0 0 0 0 1027.8 1027.8 0.0
28/08:30pm 7.1 6.3 6.5 96 0.3 CALM 0 0 0 0 1028.1 1028.1 0.0
28/08:00pm 7.5 6.7 6.4 93 0.5 CALM 0 0 0 0 1028.4 1028.4 0.0
28/07:30pm 7.5 6.2 5.8 89 0.8 ENE 2 9 1 5 1028.3 1028.3 0.0
28/07:00pm 8.9 8.2 7.0 88 0.9 CALM 0 0 0 0 1028.1 1028.1 0.0
28/06:30pm 9.4 8.6 6.7 83 1.3 CALM 0 0 0 0 1027.9 1027.9 0.0
28/06:00pm 10.4 9.6 6.7 78 1.7 CALM 0 0 0 0 1027.6 1027.6 0.0
28/05:30pm 11.8 11.1 6.9 72 2.3 CALM 0 0 0 0 1027.4 1027.4 0.0
28/05:00pm 14.0 13.5 7.8 66 3.1 CALM 0 0 0 0 1027.6 1027.6 0.0
28/04:30pm 16.2 14.4 7.9 58 4.2 NNW 7 11 4 6 1027.6 1027.6 0.0
28/04:00pm 17.0 15.3 8.2 56 4.5 N 7 13 4 7 1027.4 1027.4 0.0
28/03:30pm 17.1 14.0 7.2 52 5.0 N 13 17 7 9 1027.5 1027.5 0.0
28/03:00pm 17.5 14.9 7.8 53 4.9 NNE 11 19 6 10 1027.4 1027.4 0.0
28/02:30pm 17.4 14.4 7.7 53 4.9 N 13 24 7 13 1027.7 1027.7 0.0
28/02:00pm 17.2 15.0 7.8 54 4.7 NNE 9 19 5 10 1027.7 1027.7 0.0
28/01:30pm 17.5 15.2 8.9 57 4.5 N 11 17 6 9 1028.0 1028.0 0.0
28/01:00pm 17.1 14.3 8.5 57 4.4 N 13 19 7 10 1028.4 1028.4 0.0
28/12:30pm 16.9 15.1 9.3 61 4.0 NE 9 15 5 8 1028.8 1028.8 0.0
28/12:00pm 16.1 14.3 9.3 64 3.5 NE 9 15 5 8 1029.3 1029.3 0.0
28/11:30am 15.2 13.3 8.9 66 3.2 NE 9 15 5 8 1029.8 1029.8 0.0
28/11:00am 14.5 12.3 9.5 72 2.6 NE 11 15 6 8 1030.4 1030.5 0.0
28/10:30am 12.9 12.3 12.3 96 0.3 E 7 13 4 7 1030.6 1030.7 0.0
28/10:00am 11.0 9.9 10.8 99 0.1 E 7 11 4 6 1030.9 1031.0 0.0
28/09:30am 8.9 8.6 8.8 99 0.0 CALM 0 0 0 0 1031.0 1031.1 0.0
28/09:00am 6.8 6.0 6.7 99 0.0 CALM 0 0 0 0 1030.7 1030.8 0.0
28/08:30am 4.5 3.3 4.4 99 0.0 CALM 0 0 0 0 1030.6 1030.7 0.0
28/08:00am 2.4 0.8 2.3 99 0.0 CALM 0 0 0 0 1030.4 1030.5 0.0
28/07:30am 2.3 0.7 2.2 99 0.0 CALM 0 0 0 0 1030.3 1030.4 0.0
28/07:00am 2.7 1.1 2.6 99 0.0 CALM 0 0 0 0 1030.2 1030.2 0.0
28/06:30am 3.0 1.5 2.9 99 0.0 CALM 0 0 0 0 1030.1 1030.1 0.0
28/06:00am 2.5 0.9 2.4 99 0.0 CALM 0 0 0 0 1030.2 1030.2 0.0
28/05:30am 3.2 1.7 3.1 99 0.0 CALM 0 0 0 0 1030.4 1030.5 0.0
28/05:00am 2.9 1.4 2.8 99 0.0 CALM 0 0 0 0 1030.5 1030.6 0.0
28/04:30am 3.8 2.4 3.7 99 0.0 CALM 0 0 0 0 1030.4 1030.5 0.0
28/04:00am 3.4 2.0 3.3 99 0.0 CALM 0 0 0 0 1030.5 1030.6 0.0
28/03:30am 3.6 2.2 3.5 99 0.0 CALM 0 0 0 0 1030.7 1030.8 0.0
28/03:00am 4.1 2.8 4.0 99 0.0 CALM 0 0 0 0 1030.9 1031.0 0.0
28/02:30am 4.0 2.7 3.9 99 0.0 CALM 0 0 0 0 1031.1 1031.2 0.0
28/02:00am 4.7 3.5 4.6 99 0.0 CALM 0 0 0 0 1031.2 1031.3 0.0
28/01:30am 4.1 2.8 4.0 99 0.0 CALM 0 0 0 0 1031.3 1031.4 0.0
28/01:00am 4.6 3.4 4.5 99 0.0 CALM 0 0 0 0 1031.5 1031.6 0.0
28/12:30am 4.5 3.2 4.2 98 0.1 CALM 0 0 0 0 1031.6 1031.7 0.0
28/12:00am 5.2 4.1 4.9 98 0.1 CALM 0 0 0 0 1031.8 1031.9 0.0
 
Date/Time
WST
Temp
°C
App
Temp
°C
Dew
Point
Rel
Hum
%
Delta-T
°C
Wind Press
QNH
hPa
Press
MSL
hPa
Rain
since 9 am
mm
Dir
 
Spd
km/h
Gust
km/h
Spd
kts
Gust
kts
27/11:30pm 5.0 3.8 4.6 97 0.2 CALM 0 0 0 0 1031.8 1031.9 0.0
27/11:00pm 5.5 4.4 5.1 97 0.2 CALM 0 0 0 0 1031.9 1032.0 0.0
27/10:30pm 5.6 4.5 5.0 96 0.3 CALM 0 0 0 0 1031.9 1032.0 0.0
27/10:00pm 6.0 5.0 5.4 96 0.3 CALM 0 0 0 0 1031.9 1032.0 0.0
27/09:30pm 6.3 5.3 5.6 95 0.3 CALM 0 0 0 0 1031.9 1032.0 0.0
27/09:00pm 6.4 4.6 5.5 94 0.4 SE 4 7 2 4 1031.9 1032.0 0.0
27/08:30pm 6.8 5.8 5.7 93 0.5 CALM 0 0 0 0 1031.8 1031.9 0.0
27/08:00pm 7.0 6.0 5.6 91 0.6 CALM 0 0 0 0 1031.8 1031.9 0.0
27/07:30pm 7.7 6.8 6.2 90 0.7 CALM 0 0 0 0 1031.6 1031.7 0.0
27/07:00pm 8.1 7.2 6.2 88 0.9 CALM 0 0 0 0 1031.4 1031.5 0.0
27/06:30pm 8.8 8.0 6.4 85 1.1 CALM 0 0 0 0 1031.2 1031.3 0.0
27/06:00pm 9.3 8.4 5.9 79 1.5 CALM 0 0 0 0 1031.0 1031.1 0.0
27/05:30pm 11.1 10.2 6.0 71 2.4 CALM 0 0 0 0 1030.9 1031.0 0.0
27/05:00pm 12.8 11.7 7.0 68 2.8 ENE 2 7 1 4 1030.7 1030.8 0.0
27/04:30pm 13.9 12.4 7.0 63 3.4 E 4 9 2 5 1030.7 1030.8 0.0
27/04:00pm 14.8 12.8 7.1 60 3.8 E 7 11 4 6 1030.6 1030.7 0.0
27/03:30pm 15.5 14.5 7.5 59 4.0 SE 2 15 1 8 1030.5 1030.6 0.0
27/03:00pm 15.4 14.5 7.7 60 3.8 ESE 2 11 1 6 1030.4 1030.5 0.0
27/02:30pm 15.8 14.0 8.1 60 3.9 SE 7 13 4 7 1030.4 1030.5 0.0
27/02:00pm 15.7 13.6 8.2 61 3.8 SE 9 15 5 8 1030.6 1030.7 0.0
27/01:30pm 16.2 15.0 7.9 58 4.2 E 4 13 2 7 1030.8 1030.9 0.0

Other Formats:

Comma delimited format used in spreadsheet applications
http://www.bom.gov.au/fwo/IDW60801/IDW60801.95641.axf

JavaScript Object Notation format (JSON) in row-major order
http://www.bom.gov.au/fwo/IDW60801/IDW60801.95641.json